createdAt,value
2019-03-24T00:01:45.372Z,83.56
2019-03-24T00:04:14.855Z,83.56
2019-03-24T00:06:44.350Z,83.62
2019-03-24T00:09:13.864Z,83.47
2019-03-24T00:11:43.295Z,83.46
2019-03-24T00:14:12.760Z,83.51
2019-03-24T00:16:42.227Z,83.55
2019-03-24T00:19:11.697Z,83.55
2019-03-24T00:21:41.312Z,83.63
2019-03-24T00:24:10.936Z,83.70
2019-03-24T00:26:40.424Z,83.83
2019-03-24T00:29:11.000Z,83.89
2019-03-24T00:31:40.868Z,84.03
2019-03-24T00:34:10.572Z,84.06
2019-03-24T00:36:40.018Z,84.17
2019-03-24T00:39:09.589Z,84.34
2019-03-24T00:41:39.114Z,84.44
2019-03-24T00:44:08.608Z,84.49
2019-03-24T00:46:38.127Z,84.56
2019-03-24T00:49:07.855Z,84.70
2019-03-24T00:51:37.355Z,84.91
2019-03-24T00:54:07.109Z,84.93
2019-03-24T00:56:37.059Z,84.98
2019-03-24T00:59:06.546Z,85.07
2019-03-24T01:01:36.071Z,85.17
2019-03-24T01:04:05.782Z,85.19
2019-03-24T01:06:35.429Z,85.38
2019-03-24T01:09:07.662Z,85.64
2019-03-24T01:11:37.292Z,85.74
2019-03-24T01:14:07.057Z,85.70
2019-03-24T01:16:36.684Z,85.73
2019-03-24T01:19:06.335Z,85.83
2019-03-24T01:21:36.074Z,86.09
2019-03-24T01:24:07.157Z,86.01
2019-03-24T01:26:36.725Z,86.12
2019-03-24T01:29:06.320Z,86.18
2019-03-24T01:31:35.940Z,86.26
2019-03-24T01:34:05.580Z,86.42
2019-03-24T01:36:35.149Z,86.41
2019-03-24T01:39:10.103Z,86.40
2019-03-24T01:41:39.573Z,86.41
2019-03-24T01:44:09.157Z,86.35
2019-03-24T01:46:38.599Z,86.25
2019-03-24T01:49:08.712Z,86.32
2019-03-24T01:51:38.252Z,86.40
2019-03-24T01:54:08.316Z,86.45
2019-03-24T01:56:37.985Z,86.45
2019-03-24T01:59:07.731Z,86.44
2019-03-24T02:01:37.459Z,86.43
2019-03-24T02:04:06.893Z,86.48
2019-03-24T02:06:38.569Z,86.54
2019-03-24T02:09:08.420Z,86.58
2019-03-24T02:11:38.159Z,86.62
2019-03-24T02:14:07.961Z,86.63
2019-03-24T02:16:37.767Z,86.63
2019-03-24T02:19:07.235Z,86.62
2019-03-24T02:21:36.699Z,86.65
2019-03-24T02:24:06.244Z,86.68
2019-03-24T02:26:35.903Z,86.76
2019-03-24T02:29:06.457Z,86.80
2019-03-24T02:31:36.006Z,86.84
2019-03-24T02:34:05.493Z,86.87
2019-03-24T02:36:35.046Z,86.96
2019-03-24T02:39:09.655Z,87.01
2019-03-24T02:41:39.130Z,87.01
2019-03-24T02:44:08.632Z,87.03
2019-03-24T02:46:38.291Z,87.09
2019-03-24T02:49:07.946Z,87.15
2019-03-24T02:51:38.434Z,87.16
2019-03-24T02:54:08.042Z,87.18
2019-03-24T02:56:37.587Z,87.18
2019-03-24T02:59:07.372Z,87.20
2019-03-24T03:01:37.037Z,87.21
2019-03-24T03:04:06.628Z,87.25
2019-03-24T03:06:36.172Z,87.21
2019-03-24T03:09:06.454Z,87.19
2019-03-24T03:11:37.093Z,87.25
2019-03-24T03:14:06.756Z,87.27
2019-03-24T03:16:38.904Z,87.28
2019-03-24T03:19:07.698Z,87.30
2019-03-24T03:21:38.421Z,87.36
2019-03-24T03:24:08.213Z,87.46
2019-03-24T03:26:37.712Z,87.48
2019-03-24T03:29:07.331Z,87.48
2019-03-24T03:31:36.772Z,87.52
2019-03-24T03:34:06.329Z,87.59
2019-03-24T03:36:36.060Z,87.62
2019-03-24T03:39:07.594Z,87.73
2019-03-24T03:41:37.294Z,87.83
2019-03-24T03:44:06.948Z,87.98
2019-03-24T03:46:36.543Z,88.03
2019-03-24T03:49:05.987Z,88.12
2019-03-24T03:51:35.463Z,88.13
2019-03-24T03:54:05.039Z,88.32
2019-03-24T03:56:34.536Z,88.40
2019-03-24T03:59:04.436Z,88.40
2019-03-24T04:01:35.131Z,88.60
2019-03-24T04:04:04.819Z,88.62
2019-03-24T04:06:35.567Z,88.77
2019-03-24T04:09:06.485Z,88.80
2019-03-24T04:11:36.060Z,88.99
2019-03-24T04:14:05.573Z,89.43
2019-03-24T04:16:35.057Z,89.54
2019-03-24T04:19:04.600Z,89.66
2019-03-24T04:21:34.155Z,89.79
2019-03-24T04:24:04.582Z,89.90
2019-03-24T04:26:34.115Z,89.90
2019-03-24T04:29:04.344Z,89.88
2019-03-24T04:31:33.956Z,89.99
2019-03-24T04:34:04.490Z,90.02
2019-03-24T04:36:34.010Z,89.99
2019-03-24T04:39:06.415Z,90.05
2019-03-24T04:41:35.865Z,90.09
2019-03-24T04:44:05.343Z,90.09
2019-03-24T04:46:34.823Z,90.10
2019-03-24T04:49:04.433Z,90.01
2019-03-24T04:51:34.079Z,89.98
2019-03-24T04:54:04.676Z,90.07
2019-03-24T04:56:34.146Z,89.98
2019-03-24T04:59:04.427Z,89.99
2019-03-24T05:01:33.894Z,89.95
2019-03-24T05:04:04.425Z,89.91
2019-03-24T05:06:34.042Z,89.84
2019-03-24T05:09:05.424Z,89.76
2019-03-24T05:11:34.870Z,89.72
2019-03-24T05:14:04.563Z,89.77
2019-03-24T05:16:34.081Z,89.73
2019-03-24T05:19:04.450Z,89.72
2019-03-24T05:21:33.955Z,89.74
2019-03-24T05:24:03.405Z,89.68
2019-03-24T05:26:32.843Z,89.67
2019-03-24T05:29:02.333Z,89.69
2019-03-24T05:31:31.774Z,89.72
2019-03-24T05:34:02.589Z,89.77
2019-03-24T05:36:32.058Z,89.83
2019-03-24T05:39:01.536Z,89.82
2019-03-24T05:41:31.788Z,89.86
2019-03-24T05:44:01.227Z,89.88
2019-03-24T05:46:30.711Z,90.00
2019-03-24T05:49:00.187Z,90.00
2019-03-24T05:51:29.706Z,90.02
2019-03-24T05:53:59.200Z,90.00
2019-03-24T05:56:28.797Z,89.86
2019-03-24T05:58:59.413Z,89.63
2019-03-24T06:01:28.967Z,89.61
2019-03-24T06:03:58.426Z,89.68
2019-03-24T06:06:27.896Z,89.65
2019-03-24T06:08:57.339Z,89.51
2019-03-24T06:11:26.824Z,89.18
2019-03-24T06:13:56.290Z,89.15
2019-03-24T06:16:25.749Z,89.03
2019-03-24T06:18:55.257Z,88.85
2019-03-24T06:21:24.820Z,88.93
2019-03-24T06:23:54.367Z,88.89
2019-03-24T06:26:24.812Z,88.88
2019-03-24T06:28:54.276Z,88.74
2019-03-24T06:31:23.768Z,88.59
2019-03-24T06:33:53.264Z,88.40
2019-03-24T06:36:22.730Z,88.04
2019-03-24T06:38:52.210Z,88.07
2019-03-24T06:41:21.671Z,87.89
2019-03-24T06:43:51.205Z,87.98
2019-03-24T06:46:20.748Z,87.95
2019-03-24T06:48:51.289Z,87.71
2019-03-24T06:51:20.734Z,87.62
2019-03-24T06:53:50.219Z,87.47
2019-03-24T06:56:19.653Z,87.31
2019-03-24T06:58:49.147Z,86.97
2019-03-24T07:01:18.707Z,86.84
2019-03-24T07:03:48.321Z,86.36
2019-03-24T07:06:17.882Z,86.56
2019-03-24T07:08:47.560Z,86.59
2019-03-24T07:11:16.999Z,86.26
2019-03-24T07:13:46.469Z,86.05
2019-03-24T07:16:15.943Z,85.73
2019-03-24T07:18:47.722Z,85.68
2019-03-24T07:21:17.203Z,85.68
2019-03-24T07:23:46.690Z,85.66
2019-03-24T07:26:16.168Z,85.56
2019-03-24T07:28:45.600Z,85.46
2019-03-24T07:31:15.073Z,85.50
2019-03-24T07:33:44.579Z,85.63
2019-03-24T07:36:14.057Z,85.65
2019-03-24T07:38:43.568Z,85.48
2019-03-24T07:41:13.147Z,85.12
2019-03-24T07:43:42.869Z,84.89
2019-03-24T07:46:12.389Z,84.62
2019-03-24T07:48:41.958Z,84.28
2019-03-24T07:51:11.769Z,83.90
2019-03-24T07:53:41.224Z,83.41
2019-03-24T07:56:10.799Z,82.98
2019-03-24T07:58:40.245Z,82.17
2019-03-24T08:01:09.760Z,82.44
2019-03-24T08:03:39.345Z,82.54
2019-03-24T08:06:08.799Z,82.23
2019-03-24T08:08:44.154Z,82.16
2019-03-24T08:11:09.490Z,82.26
2019-03-24T08:13:39.026Z,82.06
2019-03-24T08:16:08.566Z,82.22
2019-03-24T08:18:38.502Z,82.52
2019-03-24T08:21:07.974Z,82.67
2019-03-24T08:23:37.427Z,82.89
2019-03-24T08:26:07.137Z,82.60
2019-03-24T08:28:36.614Z,82.50
2019-03-24T08:31:06.068Z,82.33
2019-03-24T08:33:35.576Z,81.99
2019-03-24T08:36:05.121Z,81.70
2019-03-24T08:38:34.559Z,81.49
2019-03-24T08:41:05.365Z,80.53
2019-03-24T08:43:34.788Z,80.14
2019-03-24T08:46:04.638Z,80.08
2019-03-24T08:48:40.875Z,79.27
2019-03-24T08:51:05.289Z,79.65
2019-03-24T08:53:34.769Z,79.52
2019-03-24T08:56:04.717Z,79.08
2019-03-24T08:58:34.453Z,78.17
2019-03-24T09:01:04.927Z,78.60
2019-03-24T09:03:34.536Z,77.60
2019-03-24T09:06:05.948Z,77.20
2019-03-24T09:08:35.590Z,77.25
2019-03-24T09:11:05.145Z,76.94
2019-03-24T09:13:34.691Z,76.03
2019-03-24T09:16:04.574Z,76.41
2019-03-24T09:18:34.076Z,76.24
2019-03-24T09:21:04.435Z,76.21
2019-03-24T09:23:33.954Z,76.03
2019-03-24T09:26:04.466Z,75.78
2019-03-24T09:28:33.916Z,76.05
2019-03-24T09:31:04.402Z,76.20
2019-03-24T09:33:33.917Z,75.75
2019-03-24T09:36:04.494Z,75.49
2019-03-24T09:38:34.942Z,75.40
2019-03-24T09:41:05.281Z,75.18
2019-03-24T09:43:35.191Z,75.09
2019-03-24T09:46:04.742Z,74.76
2019-03-24T09:48:34.327Z,74.74
2019-03-24T09:51:04.550Z,74.10
2019-03-24T09:53:34.105Z,74.30
2019-03-24T09:56:04.561Z,74.10
2019-03-24T09:58:34.105Z,73.94
2019-03-24T10:01:04.388Z,73.37
2019-03-24T10:03:33.852Z,72.78
2019-03-24T10:06:03.375Z,72.18
2019-03-24T10:08:32.912Z,71.52
2019-03-24T10:11:02.470Z,71.11
2019-03-24T10:13:31.935Z,70.94
2019-03-24T10:16:01.697Z,70.74
2019-03-24T10:18:31.380Z,70.04
2019-03-24T10:21:01.009Z,69.54
2019-03-24T10:23:30.491Z,68.86
2019-03-24T10:25:59.937Z,68.40
2019-03-24T10:28:29.410Z,68.04
2019-03-24T10:30:59.038Z,67.98
2019-03-24T10:33:28.538Z,66.54
2019-03-24T10:35:58.004Z,66.64
2019-03-24T10:38:27.516Z,66.06
2019-03-24T10:40:56.952Z,65.21
2019-03-24T10:43:26.491Z,64.36
2019-03-24T10:45:58.955Z,64.26
2019-03-24T10:48:33.687Z,64.60
2019-03-24T10:50:59.621Z,63.93
2019-03-24T10:53:29.146Z,64.14
2019-03-24T10:56:07.684Z,62.81
2019-03-24T10:58:37.889Z,62.05
2019-03-24T11:01:07.291Z,60.86
2019-03-24T11:03:37.539Z,57.65
2019-03-24T11:06:10.029Z,56.87
2019-03-24T11:08:39.694Z,57.03
2019-03-24T11:11:09.200Z,55.53
2019-03-24T11:13:38.680Z,56.54
2019-03-24T11:16:08.173Z,55.38
2019-03-24T11:18:37.805Z,52.48
2019-03-24T11:21:08.909Z,52.88
2019-03-24T11:23:38.603Z,52.85
2019-03-24T11:26:11.781Z,52.54
2019-03-24T11:28:43.648Z,51.90
2019-03-24T11:31:13.076Z,52.20
2019-03-24T11:33:42.768Z,50.89
2019-03-24T11:36:12.250Z,48.65
2019-03-24T11:38:41.785Z,49.15
2019-03-24T11:41:11.268Z,49.68
2019-03-24T11:43:40.729Z,50.44
2019-03-24T11:46:10.296Z,50.92
2019-03-24T11:48:39.843Z,50.14
2019-03-24T11:51:09.462Z,49.35
2019-03-24T11:53:40.079Z,48.85
2019-03-24T11:56:09.772Z,48.33
2019-03-24T11:58:39.403Z,48.50
2019-03-24T12:01:10.507Z,48.79
2019-03-24T12:03:40.374Z,49.42
2019-03-24T12:06:14.512Z,50.15
2019-03-24T12:08:42.215Z,49.37
2019-03-24T12:11:11.657Z,50.03
2019-03-24T12:13:41.131Z,49.59
2019-03-24T12:16:10.649Z,48.09
2019-03-24T12:18:40.455Z,45.87
2019-03-24T12:21:09.907Z,46.56
2019-03-24T12:23:40.148Z,46.72
2019-03-24T12:26:09.618Z,46.54
2019-03-24T12:28:39.092Z,47.30
2019-03-24T12:31:08.522Z,47.50
2019-03-24T12:33:38.000Z,45.56
2019-03-24T12:36:07.500Z,46.34
2019-03-24T12:38:37.172Z,46.89
2019-03-24T12:41:07.030Z,46.82
2019-03-24T12:43:36.491Z,47.96
2019-03-24T12:46:06.328Z,48.00
2019-03-24T12:48:36.106Z,47.96
2019-03-24T12:51:05.745Z,48.54
2019-03-24T12:53:35.377Z,49.39
2019-03-24T12:56:16.312Z,49.06
2019-03-24T12:58:40.977Z,50.43
2019-03-24T13:01:13.891Z,50.52
2019-03-24T13:03:43.411Z,49.88
2019-03-24T13:06:12.819Z,49.70
2019-03-24T13:08:42.448Z,50.06
2019-03-24T13:11:11.884Z,50.11
2019-03-24T13:13:41.565Z,49.75
2019-03-24T13:16:11.068Z,50.00
2019-03-24T13:18:41.853Z,51.49
2019-03-24T13:21:11.353Z,51.31
2019-03-24T13:23:40.920Z,50.42
2019-03-24T13:26:10.436Z,50.56
2019-03-24T13:28:40.061Z,51.43
2019-03-24T13:31:09.529Z,51.51
2019-03-24T13:33:39.007Z,49.95
2019-03-24T13:36:10.629Z,50.48
2019-03-24T13:38:40.183Z,50.74
2019-03-24T13:41:09.717Z,49.88
2019-03-24T13:43:39.308Z,49.64
2019-03-24T13:46:08.886Z,49.72
2019-03-24T13:48:38.375Z,49.51
2019-03-24T13:51:07.949Z,48.69
2019-03-24T13:53:37.409Z,48.36
2019-03-24T13:56:08.968Z,48.39
2019-03-24T13:58:38.504Z,47.69
2019-03-24T14:01:09.648Z,47.89
2019-03-24T14:03:39.449Z,46.35
2019-03-24T14:06:08.915Z,46.36
2019-03-24T14:08:38.358Z,45.30
2019-03-24T14:11:07.948Z,44.00
2019-03-24T14:13:37.481Z,43.83
2019-03-24T14:16:07.099Z,45.30
2019-03-24T14:18:36.539Z,46.12
2019-03-24T14:21:06.225Z,45.97
2019-03-24T14:23:36.077Z,46.41
2019-03-24T14:26:05.655Z,46.20
2019-03-24T14:28:35.157Z,47.38
2019-03-24T14:31:04.835Z,47.76
2019-03-24T14:33:34.296Z,48.04
2019-03-24T14:36:04.388Z,47.90
2019-03-24T14:38:33.906Z,48.82
2019-03-24T14:41:05.017Z,49.84
2019-03-24T14:43:34.481Z,50.45
2019-03-24T14:46:04.563Z,50.71
2019-03-24T14:48:36.222Z,51.45
2019-03-24T14:51:06.647Z,51.74
2019-03-24T14:53:36.402Z,51.43
2019-03-24T14:56:05.960Z,51.82
2019-03-24T14:58:35.545Z,51.81
2019-03-24T15:01:05.223Z,52.14
2019-03-24T15:03:34.808Z,51.64
2019-03-24T15:06:05.180Z,51.29
2019-03-24T15:08:35.662Z,52.17
2019-03-24T15:11:07.120Z,51.67
2019-03-24T15:13:36.784Z,51.33
2019-03-24T15:16:06.300Z,50.97
2019-03-24T15:18:36.006Z,50.44
2019-03-24T15:21:06.208Z,50.01
2019-03-24T15:23:35.730Z,49.62
2019-03-24T15:26:05.299Z,49.82
2019-03-24T15:28:34.744Z,49.47
2019-03-24T15:31:04.582Z,49.77
2019-03-24T15:33:34.098Z,49.89
2019-03-24T15:36:04.746Z,49.76
2019-03-24T15:38:35.181Z,48.47
2019-03-24T15:41:04.770Z,48.16
2019-03-24T15:43:34.228Z,48.55
2019-03-24T15:46:04.391Z,48.64
2019-03-24T15:48:35.407Z,47.68
2019-03-24T15:51:16.053Z,47.89
2019-03-24T15:53:36.081Z,47.93
2019-03-24T15:56:05.536Z,47.67
2019-03-24T15:58:35.261Z,47.31
2019-03-24T16:01:04.929Z,47.86
2019-03-24T16:03:34.351Z,47.27
2019-03-24T16:06:04.447Z,47.48
2019-03-24T16:08:34.856Z,46.76
2019-03-24T16:11:04.450Z,46.47
2019-03-24T16:13:33.926Z,47.00
2019-03-24T16:16:03.446Z,47.22
2019-03-24T16:18:34.062Z,47.35
2019-03-24T16:21:04.494Z,47.49
2019-03-24T16:23:42.291Z,48.00
2019-03-24T16:26:11.777Z,48.31
2019-03-24T16:28:41.213Z,48.80
2019-03-24T16:31:12.386Z,49.12
2019-03-24T16:33:41.926Z,49.50
2019-03-24T16:36:11.382Z,49.57
2019-03-24T16:38:48.757Z,49.51
2019-03-24T16:41:13.592Z,48.89
2019-03-24T16:43:44.142Z,48.01
2019-03-24T16:46:13.609Z,47.70
2019-03-24T16:48:43.095Z,47.01
2019-03-24T16:51:12.761Z,47.07
2019-03-24T16:53:42.494Z,46.43
2019-03-24T16:56:12.100Z,45.62
2019-03-24T16:58:41.625Z,45.83
2019-03-24T17:01:11.148Z,46.03
2019-03-24T17:03:40.687Z,45.28
2019-03-24T17:06:11.740Z,45.11
2019-03-24T17:08:41.319Z,45.09
2019-03-24T17:11:10.771Z,45.08
2019-03-24T17:13:40.395Z,45.01
2019-03-24T17:16:10.012Z,44.10
2019-03-24T17:18:39.643Z,44.25
2019-03-24T17:21:10.343Z,44.71
2019-03-24T17:23:41.515Z,44.46
2019-03-24T17:26:11.138Z,44.42
2019-03-24T17:28:40.594Z,44.67
2019-03-24T17:31:10.026Z,44.81
2019-03-24T17:33:39.617Z,45.03
2019-03-24T17:36:09.228Z,44.97
2019-03-24T17:38:38.866Z,45.39
2019-03-24T17:41:08.819Z,45.21
2019-03-24T17:43:38.324Z,45.40
2019-03-24T17:46:08.132Z,45.47
2019-03-24T17:48:37.567Z,45.71
2019-03-24T17:51:07.106Z,45.78
2019-03-24T17:53:36.613Z,45.83
2019-03-24T17:56:06.212Z,46.14
2019-03-24T17:58:35.700Z,46.28
2019-03-24T18:01:05.366Z,46.53
2019-03-24T18:03:34.911Z,46.83
2019-03-24T18:06:04.602Z,47.20
2019-03-24T18:08:54.181Z,47.42
2019-03-24T18:15:37.495Z,47.79
2019-03-24T18:18:17.639Z,47.96
2019-03-24T18:20:47.492Z,48.26
2019-03-24T18:23:17.326Z,48.49
2019-03-24T18:25:47.124Z,48.68
2019-03-24T18:28:21.945Z,48.92
2019-03-24T18:30:51.986Z,49.09
2019-03-24T18:33:21.894Z,49.27
2019-03-24T18:35:51.801Z,49.34
2019-03-24T18:38:21.400Z,49.55
2019-03-24T18:40:50.915Z,49.49
2019-03-24T18:43:21.546Z,49.65
2019-03-24T18:45:51.083Z,49.74
2019-03-24T18:48:20.670Z,49.77
2019-03-24T18:50:51.793Z,49.82
2019-03-24T18:53:21.246Z,50.14
2019-03-24T18:55:50.691Z,50.00
2019-03-24T18:58:20.174Z,50.00
2019-03-24T19:00:50.504Z,50.09
2019-03-24T19:03:19.994Z,50.23
2019-03-24T19:05:49.423Z,50.38
2019-03-24T19:08:18.937Z,50.89
2019-03-24T19:10:48.375Z,51.04
2019-03-24T19:13:18.875Z,51.23
2019-03-24T19:15:48.370Z,51.45
2019-03-24T19:18:17.870Z,51.59
2019-03-24T19:20:47.336Z,51.85
2019-03-24T19:23:18.509Z,52.02
2019-03-24T19:25:48.276Z,52.26
2019-03-24T19:28:24.713Z,52.43
2019-03-24T19:30:54.174Z,52.63
2019-03-24T19:33:23.810Z,52.90
2019-03-24T19:35:53.502Z,53.06
2019-03-24T19:38:24.508Z,53.18
2019-03-24T19:40:54.212Z,53.45
2019-03-24T19:43:23.962Z,53.50
2019-03-24T19:45:53.432Z,53.63
2019-03-24T19:48:23.127Z,53.90
2019-03-24T19:50:52.896Z,54.05
2019-03-24T19:53:23.363Z,54.22
2019-03-24T19:55:53.111Z,54.39
2019-03-24T19:58:22.783Z,54.55
2019-03-24T20:00:53.388Z,54.67
2019-03-24T20:03:22.917Z,54.79
2019-03-24T20:05:52.711Z,54.94
2019-03-24T20:08:22.565Z,55.10
2019-03-24T20:10:56.075Z,55.18
2019-03-24T20:13:30.340Z,55.34
2019-03-24T20:16:03.191Z,55.47
2019-03-24T20:18:35.064Z,55.75
2019-03-24T20:21:06.703Z,56.02
2019-03-24T20:23:42.575Z,56.10
2019-03-24T20:26:12.668Z,56.22
2019-03-24T20:28:43.158Z,56.36
2019-03-24T20:31:12.965Z,56.47
2019-03-24T20:33:43.581Z,56.47
2019-03-24T20:36:14.152Z,56.58
2019-03-24T20:38:43.885Z,56.62
2019-03-24T20:41:14.731Z,56.49
2019-03-24T20:43:44.202Z,56.39
2019-03-24T20:46:13.929Z,56.41
2019-03-24T20:48:43.466Z,56.29
2019-03-24T20:51:13.586Z,56.31
2019-03-24T20:53:43.175Z,56.23
2019-03-24T20:56:13.150Z,56.31
2019-03-24T20:58:43.092Z,56.29
2019-03-24T21:01:13.130Z,56.24
2019-03-24T21:03:43.225Z,56.23
2019-03-24T21:06:12.966Z,56.33
2019-03-24T21:08:42.622Z,56.12
2019-03-24T21:11:12.923Z,56.11
2019-03-24T21:13:45.188Z,56.13
2019-03-24T21:16:14.169Z,56.10
2019-03-24T21:18:44.870Z,55.97
2019-03-24T21:21:14.322Z,55.98
2019-03-24T21:23:44.595Z,55.97
2019-03-24T21:26:14.286Z,55.98
2019-03-24T21:28:43.881Z,55.95
2019-03-24T21:31:13.385Z,56.01
2019-03-24T21:33:43.034Z,56.19
2019-03-24T21:36:12.765Z,56.20
2019-03-24T21:38:42.544Z,56.22
2019-03-24T21:41:12.016Z,56.19
2019-03-24T21:43:41.755Z,56.14
2019-03-24T21:46:11.377Z,56.12
2019-03-24T21:48:40.860Z,56.23
2019-03-24T21:51:10.464Z,56.21
2019-03-24T21:53:41.062Z,56.24
2019-03-24T21:56:10.726Z,56.29
2019-03-24T21:58:40.208Z,56.29
2019-03-24T22:01:09.811Z,56.44
2019-03-24T22:03:40.928Z,56.44
2019-03-24T22:06:10.380Z,56.63
2019-03-24T22:08:39.973Z,56.71
2019-03-24T22:11:12.289Z,56.80
2019-03-24T22:13:41.941Z,56.84
2019-03-24T22:16:11.463Z,57.02
2019-03-24T22:18:40.939Z,57.23
2019-03-24T22:21:10.446Z,57.48
2019-03-24T22:23:40.025Z,57.75
2019-03-24T22:26:09.471Z,57.95
2019-03-24T22:28:40.226Z,58.11
2019-03-24T22:31:12.987Z,58.17
2019-03-24T22:33:42.595Z,58.37
2019-03-24T22:36:12.354Z,58.47
2019-03-24T22:38:42.348Z,58.54
2019-03-24T22:41:12.156Z,58.60
2019-03-24T22:43:41.633Z,58.78
2019-03-24T22:46:11.082Z,58.94
2019-03-24T22:48:40.564Z,59.19
2019-03-24T22:51:10.323Z,59.36
2019-03-24T22:53:39.964Z,59.54
2019-03-24T22:56:09.725Z,59.70
2019-03-24T22:58:39.325Z,59.81
2019-03-24T23:01:09.298Z,60.10
2019-03-24T23:03:40.699Z,60.32
2019-03-24T23:06:11.404Z,60.72
2019-03-24T23:08:40.875Z,60.93
2019-03-24T23:11:10.507Z,61.27
2019-03-24T23:13:40.169Z,61.59
2019-03-24T23:16:10.622Z,61.85
2019-03-24T23:18:40.156Z,62.15
2019-03-24T23:21:09.713Z,62.39
2019-03-24T23:23:39.261Z,62.65
2019-03-24T23:26:08.711Z,62.76
2019-03-24T23:28:38.248Z,62.80
2019-03-24T23:31:07.799Z,62.99
2019-03-24T23:33:37.278Z,63.14
2019-03-24T23:36:07.118Z,63.14
2019-03-24T23:38:36.900Z,63.26
2019-03-24T23:41:06.631Z,63.25
2019-03-24T23:43:36.344Z,63.50
2019-03-24T23:46:05.916Z,63.65
2019-03-24T23:48:35.415Z,63.78
2019-03-24T23:51:04.973Z,64.02
2019-03-24T23:53:34.430Z,64.20
2019-03-24T23:56:04.615Z,64.37
2019-03-24T23:58:40.699Z,64.51
